sensor_id;sensor_type;location;lat;lon;timestamp;P1;durP1;ratioP1;P2;durP2;ratioP2
36283;SDS011;56085;48.910;9.478;2023-06-19T00:00:33;8.95;;;5.70;;
36283;SDS011;56085;48.910;9.478;2023-06-19T00:02:58;11.75;;;6.10;;
36283;SDS011;56085;48.910;9.478;2023-06-19T00:05:23;6.65;;;5.55;;
36283;SDS011;56085;48.910;9.478;2023-06-19T00:07:49;7.85;;;5.68;;
36283;SDS011;56085;48.910;9.478;2023-06-19T00:10:15;8.77;;;5.82;;
36283;SDS011;56085;48.910;9.478;2023-06-19T00:12:40;8.25;;;6.65;;
36283;SDS011;56085;48.910;9.478;2023-06-19T00:15:06;9.05;;;5.65;;
36283;SDS011;56085;48.910;9.478;2023-06-19T00:17:34;8.57;;;5.60;;
36283;SDS011;56085;48.910;9.478;2023-06-19T00:20:02;6.70;;;5.25;;
36283;SDS011;56085;48.910;9.478;2023-06-19T00:22:28;6.50;;;5.82;;
36283;SDS011;56085;48.910;9.478;2023-06-19T00:24:53;9.43;;;5.72;;
36283;SDS011;56085;48.910;9.478;2023-06-19T00:27:18;7.07;;;5.80;;
36283;SDS011;56085;48.910;9.478;2023-06-19T00:29:44;8.45;;;5.40;;
36283;SDS011;56085;48.910;9.478;2023-06-19T00:32:09;8.82;;;5.60;;
36283;SDS011;56085;48.910;9.478;2023-06-19T00:34:34;8.00;;;5.30;;
36283;SDS011;56085;48.910;9.478;2023-06-19T00:37:01;9.40;;;6.05;;
36283;SDS011;56085;48.910;9.478;2023-06-19T00:39:27;7.22;;;6.45;;
36283;SDS011;56085;48.910;9.478;2023-06-19T00:41:53;8.95;;;5.15;;
36283;SDS011;56085;48.910;9.478;2023-06-19T00:44:20;9.27;;;5.25;;
36283;SDS011;56085;48.910;9.478;2023-06-19T00:46:45;7.07;;;5.60;;
36283;SDS011;56085;48.910;9.478;2023-06-19T00:49:11;10.73;;;5.50;;
36283;SDS011;56085;48.910;9.478;2023-06-19T00:51:38;7.85;;;6.00;;
36283;SDS011;56085;48.910;9.478;2023-06-19T00:54:04;8.70;;;5.70;;
36283;SDS011;56085;48.910;9.478;2023-06-19T00:56:30;8.23;;;6.38;;
36283;SDS011;56085;48.910;9.478;2023-06-19T00:58:57;8.52;;;5.78;;
36283;SDS011;56085;48.910;9.478;2023-06-19T01:01:22;8.10;;;5.97;;
36283;SDS011;56085;48.910;9.478;2023-06-19T01:03:51;10.05;;;5.75;;
36283;SDS011;56085;48.910;9.478;2023-06-19T01:06:19;8.00;;;6.45;;
36283;SDS011;56085;48.910;9.478;2023-06-19T01:09:01;7.07;;;5.57;;
36283;SDS011;56085;48.910;9.478;2023-06-19T01:11:33;8.30;;;6.20;;
36283;SDS011;56085;48.910;9.478;2023-06-19T01:14:08;7.88;;;6.47;;
36283;SDS011;56085;48.910;9.478;2023-06-19T01:16:37;9.20;;;6.90;;
36283;SDS011;56085;48.910;9.478;2023-06-19T01:19:04;7.97;;;6.47;;
36283;SDS011;56085;48.910;9.478;2023-06-19T01:21:34;7.22;;;6.10;;
36283;SDS011;56085;48.910;9.478;2023-06-19T01:24:00;7.22;;;5.85;;
36283;SDS011;56085;48.910;9.478;2023-06-19T01:26:26;8.85;;;6.18;;
36283;SDS011;56085;48.910;9.478;2023-06-19T01:28:52;9.07;;;6.85;;
36283;SDS011;56085;48.910;9.478;2023-06-19T01:31:31;7.65;;;6.10;;
36283;SDS011;56085;48.910;9.478;2023-06-19T01:34:15;11.30;;;6.70;;
36283;SDS011;56085;48.910;9.478;2023-06-19T01:36:43;12.88;;;5.78;;
36283;SDS011;56085;48.910;9.478;2023-06-19T01:39:08;10.38;;;5.80;;
36283;SDS011;56085;48.910;9.478;2023-06-19T01:41:35;5.55;;;4.80;;
36283;SDS011;56085;48.910;9.478;2023-06-19T01:44:00;8.13;;;4.80;;
36283;SDS011;56085;48.910;9.478;2023-06-19T01:46:27;5.88;;;4.43;;
36283;SDS011;56085;48.910;9.478;2023-06-19T01:48:52;6.65;;;4.32;;
36283;SDS011;56085;48.910;9.478;2023-06-19T01:51:18;6.30;;;4.80;;
36283;SDS011;56085;48.910;9.478;2023-06-19T01:53:43;8.68;;;4.55;;
36283;SDS011;56085;48.910;9.478;2023-06-19T01:56:09;8.25;;;5.53;;
36283;SDS011;56085;48.910;9.478;2023-06-19T01:58:34;9.65;;;6.13;;
36283;SDS011;56085;48.910;9.478;2023-06-19T02:00:59;10.55;;;6.50;;
36283;SDS011;56085;48.910;9.478;2023-06-19T02:03:24;10.20;;;5.28;;
36283;SDS011;56085;48.910;9.478;2023-06-19T02:05:50;7.00;;;5.45;;
36283;SDS011;56085;48.910;9.478;2023-06-19T02:08:15;7.07;;;5.00;;
36283;SDS011;56085;48.910;9.478;2023-06-19T02:10:41;7.13;;;4.80;;
36283;SDS011;56085;48.910;9.478;2023-06-19T02:13:06;7.25;;;4.50;;
36283;SDS011;56085;48.910;9.478;2023-06-19T02:15:31;6.35;;;5.00;;
36283;SDS011;56085;48.910;9.478;2023-06-19T02:17:56;4.97;;;4.40;;
36283;SDS011;56085;48.910;9.478;2023-06-19T02:20:22;7.07;;;4.88;;
36283;SDS011;56085;48.910;9.478;2023-06-19T02:22:51;7.22;;;4.57;;
36283;SDS011;56085;48.910;9.478;2023-06-19T02:25:17;11.00;;;5.13;;
36283;SDS011;56085;48.910;9.478;2023-06-19T02:27:43;5.82;;;3.97;;
36283;SDS011;56085;48.910;9.478;2023-06-19T02:30:09;6.22;;;4.72;;
36283;SDS011;56085;48.910;9.478;2023-06-19T02:32:35;8.15;;;4.95;;
36283;SDS011;56085;48.910;9.478;2023-06-19T02:35:00;5.57;;;4.13;;
36283;SDS011;56085;48.910;9.478;2023-06-19T02:37:25;6.07;;;4.40;;
36283;SDS011;56085;48.910;9.478;2023-06-19T02:39:50;5.82;;;4.38;;
36283;SDS011;56085;48.910;9.478;2023-06-19T02:42:16;7.05;;;5.72;;
36283;SDS011;56085;48.910;9.478;2023-06-19T02:44:41;5.45;;;4.32;;
36283;SDS011;56085;48.910;9.478;2023-06-19T02:47:08;6.80;;;4.43;;
36283;SDS011;56085;48.910;9.478;2023-06-19T02:49:33;5.10;;;4.07;;
36283;SDS011;56085;48.910;9.478;2023-06-19T02:52:01;6.72;;;5.13;;
36283;SDS011;56085;48.910;9.478;2023-06-19T02:54:26;6.35;;;4.35;;
36283;SDS011;56085;48.910;9.478;2023-06-19T02:56:52;7.00;;;5.18;;
36283;SDS011;56085;48.910;9.478;2023-06-19T02:59:17;5.45;;;4.47;;
36283;SDS011;56085;48.910;9.478;2023-06-19T03:01:42;8.18;;;4.88;;
36283;SDS011;56085;48.910;9.478;2023-06-19T03:04:08;5.68;;;4.25;;
36283;SDS011;56085;48.910;9.478;2023-06-19T03:06:33;7.40;;;4.38;;
36283;SDS011;56085;48.910;9.478;2023-06-19T03:09:04;12.48;;;4.72;;
36283;SDS011;56085;48.910;9.478;2023-06-19T03:11:30;6.65;;;4.50;;
36283;SDS011;56085;48.910;9.478;2023-06-19T03:13:55;10.40;;;5.05;;
36283;SDS011;56085;48.910;9.478;2023-06-19T03:16:21;9.20;;;5.07;;
36283;SDS011;56085;48.910;9.478;2023-06-19T03:18:46;6.85;;;4.00;;
36283;SDS011;56085;48.910;9.478;2023-06-19T03:21:12;6.03;;;4.82;;
36283;SDS011;56085;48.910;9.478;2023-06-19T03:23:38;7.00;;;4.95;;
36283;SDS011;56085;48.910;9.478;2023-06-19T03:26:06;5.95;;;4.35;;
36283;SDS011;56085;48.910;9.478;2023-06-19T03:28:32;7.63;;;4.50;;
36283;SDS011;56085;48.910;9.478;2023-06-19T03:30:57;5.95;;;4.72;;
36283;SDS011;56085;48.910;9.478;2023-06-19T03:33:22;6.07;;;4.40;;
36283;SDS011;56085;48.910;9.478;2023-06-19T03:35:47;6.32;;;4.40;;
36283;SDS011;56085;48.910;9.478;2023-06-19T03:38:13;5.72;;;4.57;;
36283;SDS011;56085;48.910;9.478;2023-06-19T03:40:38;7.63;;;5.10;;
36283;SDS011;56085;48.910;9.478;2023-06-19T03:43:04;8.55;;;4.50;;
36283;SDS011;56085;48.910;9.478;2023-06-19T03:45:29;8.25;;;4.88;;
36283;SDS011;56085;48.910;9.478;2023-06-19T03:47:54;5.85;;;4.63;;
36283;SDS011;56085;48.910;9.478;2023-06-19T03:50:19;5.70;;;4.72;;
36283;SDS011;56085;48.910;9.478;2023-06-19T03:52:45;5.40;;;4.50;;
36283;SDS011;56085;48.910;9.478;2023-06-19T03:55:10;11.82;;;5.03;;
36283;SDS011;56085;48.910;9.478;2023-06-19T03:57:35;6.63;;;4.63;;
36283;SDS011;56085;48.910;9.478;2023-06-19T04:00:01;5.78;;;4.65;;
36283;SDS011;56085;48.910;9.478;2023-06-19T04:02:26;7.72;;;4.38;;
36283;SDS011;56085;48.910;9.478;2023-06-19T04:04:52;6.03;;;4.63;;
36283;SDS011;56085;48.910;9.478;2023-06-19T04:07:18;7.38;;;4.80;;
36283;SDS011;56085;48.910;9.478;2023-06-19T04:09:43;6.90;;;4.45;;
36283;SDS011;56085;48.910;9.478;2023-06-19T04:12:08;5.78;;;4.80;;
36283;SDS011;56085;48.910;9.478;2023-06-19T04:14:34;6.78;;;4.80;;
36283;SDS011;56085;48.910;9.478;2023-06-19T04:16:59;6.00;;;4.57;;
36283;SDS011;56085;48.910;9.478;2023-06-19T04:19:24;7.20;;;5.00;;
36283;SDS011;56085;48.910;9.478;2023-06-19T04:21:50;5.93;;;4.13;;
36283;SDS011;56085;48.910;9.478;2023-06-19T04:24:15;7.93;;;4.90;;
36283;SDS011;56085;48.910;9.478;2023-06-19T04:26:40;6.32;;;4.60;;
36283;SDS011;56085;48.910;9.478;2023-06-19T04:29:07;5.88;;;4.50;;
36283;SDS011;56085;48.910;9.478;2023-06-19T04:31:32;6.22;;;4.72;;
36283;SDS011;56085;48.910;9.478;2023-06-19T04:33:58;6.63;;;4.68;;
36283;SDS011;56085;48.910;9.478;2023-06-19T04:36:23;6.75;;;4.57;;
36283;SDS011;56085;48.910;9.478;2023-06-19T04:38:49;8.38;;;4.25;;
36283;SDS011;56085;48.910;9.478;2023-06-19T04:41:16;5.55;;;4.00;;
36283;SDS011;56085;48.910;9.478;2023-06-19T04:43:42;4.85;;;3.80;;
36283;SDS011;56085;48.910;9.478;2023-06-19T04:46:07;8.30;;;3.78;;
36283;SDS011;56085;48.910;9.478;2023-06-19T04:48:32;5.35;;;3.53;;
36283;SDS011;56085;48.910;9.478;2023-06-19T04:51:00;6.28;;;2.90;;
36283;SDS011;56085;48.910;9.478;2023-06-19T04:53:26;6.13;;;2.75;;
36283;SDS011;56085;48.910;9.478;2023-06-19T04:55:52;4.57;;;3.00;;
36283;SDS011;56085;48.910;9.478;2023-06-19T04:58:19;4.88;;;3.10;;
36283;SDS011;56085;48.910;9.478;2023-06-19T05:00:46;4.05;;;2.75;;
36283;SDS011;56085;48.910;9.478;2023-06-19T05:03:16;4.43;;;2.67;;
36283;SDS011;56085;48.910;9.478;2023-06-19T05:05:42;5.80;;;2.85;;
36283;SDS011;56085;48.910;9.478;2023-06-19T05:08:07;4.57;;;2.40;;
36283;SDS011;56085;48.910;9.478;2023-06-19T05:10:32;4.43;;;2.35;;
36283;SDS011;56085;48.910;9.478;2023-06-19T05:12:58;4.50;;;2.58;;
36283;SDS011;56085;48.910;9.478;2023-06-19T05:15:23;6.30;;;2.55;;
36283;SDS011;56085;48.910;9.478;2023-06-19T05:17:48;5.70;;;2.70;;
36283;SDS011;56085;48.910;9.478;2023-06-19T05:20:14;5.10;;;2.53;;
36283;SDS011;56085;48.910;9.478;2023-06-19T05:22:39;5.13;;;2.67;;
36283;SDS011;56085;48.910;9.478;2023-06-19T05:25:05;3.88;;;2.60;;
36283;SDS011;56085;48.910;9.478;2023-06-19T05:27:30;4.47;;;2.92;;
36283;SDS011;56085;48.910;9.478;2023-06-19T05:29:55;4.25;;;2.33;;
36283;SDS011;56085;48.910;9.478;2023-06-19T05:32:21;4.47;;;2.97;;
36283;SDS011;56085;48.910;9.478;2023-06-19T05:34:46;4.30;;;2.47;;
36283;SDS011;56085;48.910;9.478;2023-06-19T05:37:11;4.25;;;2.10;;
36283;SDS011;56085;48.910;9.478;2023-06-19T05:39:37;3.92;;;2.75;;
36283;SDS011;56085;48.910;9.478;2023-06-19T05:42:02;3.92;;;2.63;;
36283;SDS011;56085;48.910;9.478;2023-06-19T05:44:27;3.95;;;2.53;;
36283;SDS011;56085;48.910;9.478;2023-06-19T05:46:53;6.07;;;2.60;;
36283;SDS011;56085;48.910;9.478;2023-06-19T05:49:18;6.00;;;2.90;;
36283;SDS011;56085;48.910;9.478;2023-06-19T05:51:43;4.38;;;2.63;;
36283;SDS011;56085;48.910;9.478;2023-06-19T05:54:09;3.88;;;2.65;;
36283;SDS011;56085;48.910;9.478;2023-06-19T05:56:34;4.40;;;2.50;;
36283;SDS011;56085;48.910;9.478;2023-06-19T05:59:01;3.40;;;2.28;;
36283;SDS011;56085;48.910;9.478;2023-06-19T06:01:27;4.10;;;2.30;;
36283;SDS011;56085;48.910;9.478;2023-06-19T06:03:54;4.40;;;2.97;;
36283;SDS011;56085;48.910;9.478;2023-06-19T06:06:19;4.38;;;3.00;;
36283;SDS011;56085;48.910;9.478;2023-06-19T06:08:45;4.38;;;2.88;;
36283;SDS011;56085;48.910;9.478;2023-06-19T06:11:10;5.53;;;2.38;;
36283;SDS011;56085;48.910;9.478;2023-06-19T06:13:35;4.75;;;3.45;;
36283;SDS011;56085;48.910;9.478;2023-06-19T06:16:01;6.82;;;3.40;;
36283;SDS011;56085;48.910;9.478;2023-06-19T06:18:26;4.50;;;3.00;;
36283;SDS011;56085;48.910;9.478;2023-06-19T06:20:51;3.80;;;2.50;;
36283;SDS011;56085;48.910;9.478;2023-06-19T06:23:16;4.18;;;2.72;;
36283;SDS011;56085;48.910;9.478;2023-06-19T06:25:42;7.65;;;3.42;;
36283;SDS011;56085;48.910;9.478;2023-06-19T06:28:07;3.88;;;3.05;;
36283;SDS011;56085;48.910;9.478;2023-06-19T06:30:32;5.60;;;3.15;;
36283;SDS011;56085;48.910;9.478;2023-06-19T06:32:58;4.28;;;2.95;;
36283;SDS011;56085;48.910;9.478;2023-06-19T06:35:23;4.97;;;2.90;;
36283;SDS011;56085;48.910;9.478;2023-06-19T06:37:48;4.47;;;3.10;;
36283;SDS011;56085;48.910;9.478;2023-06-19T06:40:15;4.63;;;3.05;;
36283;SDS011;56085;48.910;9.478;2023-06-19T06:42:40;4.68;;;3.00;;
36283;SDS011;56085;48.910;9.478;2023-06-19T06:45:06;7.97;;;3.50;;
36283;SDS011;56085;48.910;9.478;2023-06-19T06:47:32;3.95;;;2.53;;
36283;SDS011;56085;48.910;9.478;2023-06-19T06:49:57;3.67;;;2.67;;
36283;SDS011;56085;48.910;9.478;2023-06-19T06:52:22;4.53;;;2.97;;
36283;SDS011;56085;48.910;9.478;2023-06-19T06:54:48;3.53;;;2.53;;
36283;SDS011;56085;48.910;9.478;2023-06-19T06:57:14;3.90;;;2.97;;
36283;SDS011;56085;48.910;9.478;2023-06-19T06:59:39;3.78;;;2.83;;
36283;SDS011;56085;48.910;9.478;2023-06-19T07:02:05;5.80;;;2.53;;
36283;SDS011;56085;48.910;9.478;2023-06-19T07:04:30;4.30;;;2.85;;
36283;SDS011;56085;48.910;9.478;2023-06-19T07:06:56;4.80;;;2.63;;
36283;SDS011;56085;48.910;9.478;2023-06-19T07:09:23;5.65;;;2.80;;
36283;SDS011;56085;48.910;9.478;2023-06-19T07:11:48;3.47;;;2.47;;
36283;SDS011;56085;48.910;9.478;2023-06-19T07:14:14;2.92;;;2.15;;
36283;SDS011;56085;48.910;9.478;2023-06-19T07:16:42;3.80;;;2.58;;
36283;SDS011;56085;48.910;9.478;2023-06-19T07:19:08;3.25;;;2.53;;
36283;SDS011;56085;48.910;9.478;2023-06-19T07:21:33;3.35;;;2.30;;
36283;SDS011;56085;48.910;9.478;2023-06-19T07:23:58;8.45;;;2.35;;
36283;SDS011;56085;48.910;9.478;2023-06-19T07:26:24;3.15;;;2.38;;
36283;SDS011;56085;48.910;9.478;2023-06-19T07:28:49;3.92;;;2.25;;
36283;SDS011;56085;48.910;9.478;2023-06-19T07:31:14;2.78;;;2.17;;
36283;SDS011;56085;48.910;9.478;2023-06-19T07:33:40;3.10;;;2.50;;
36283;SDS011;56085;48.910;9.478;2023-06-19T07:36:05;3.35;;;2.38;;
36283;SDS011;56085;48.910;9.478;2023-06-19T07:38:30;3.08;;;2.33;;
36283;SDS011;56085;48.910;9.478;2023-06-19T07:40:56;3.60;;;2.50;;
36283;SDS011;56085;48.910;9.478;2023-06-19T07:43:21;3.20;;;2.20;;
36283;SDS011;56085;48.910;9.478;2023-06-19T07:45:49;3.00;;;2.03;;
36283;SDS011;56085;48.910;9.478;2023-06-19T07:48:15;3.40;;;2.22;;
36283;SDS011;56085;48.910;9.478;2023-06-19T07:50:40;2.58;;;1.75;;
36283;SDS011;56085;48.910;9.478;2023-06-19T07:53:06;4.82;;;2.47;;
36283;SDS011;56085;48.910;9.478;2023-06-19T07:55:31;3.80;;;2.22;;
36283;SDS011;56085;48.910;9.478;2023-06-19T07:57:57;4.13;;;1.95;;
36283;SDS011;56085;48.910;9.478;2023-06-19T08:00:23;3.97;;;2.40;;
36283;SDS011;56085;48.910;9.478;2023-06-19T08:02:49;3.22;;;2.40;;
36283;SDS011;56085;48.910;9.478;2023-06-19T08:05:15;4.28;;;2.58;;
36283;SDS011;56085;48.910;9.478;2023-06-19T08:07:40;3.20;;;1.90;;
36283;SDS011;56085;48.910;9.478;2023-06-19T08:10:05;3.17;;;2.10;;
36283;SDS011;56085;48.910;9.478;2023-06-19T08:12:31;3.80;;;2.22;;
36283;SDS011;56085;48.910;9.478;2023-06-19T08:14:57;3.38;;;2.17;;
36283;SDS011;56085;48.910;9.478;2023-06-19T08:17:22;2.85;;;2.03;;
36283;SDS011;56085;48.910;9.478;2023-06-19T08:19:47;4.28;;;1.90;;
36283;SDS011;56085;48.910;9.478;2023-06-19T08:22:13;4.97;;;2.10;;
36283;SDS011;56085;48.910;9.478;2023-06-19T08:24:38;5.03;;;1.85;;
36283;SDS011;56085;48.910;9.478;2023-06-19T08:27:05;3.08;;;2.10;;
36283;SDS011;56085;48.910;9.478;2023-06-19T08:29:31;4.25;;;2.08;;
36283;SDS011;56085;48.910;9.478;2023-06-19T08:31:56;2.73;;;1.97;;
36283;SDS011;56085;48.910;9.478;2023-06-19T08:34:21;2.77;;;1.70;;
36283;SDS011;56085;48.910;9.478;2023-06-19T08:36:47;1.98;;;1.45;;
36283;SDS011;56085;48.910;9.478;2023-06-19T08:39:12;3.05;;;2.00;;
36283;SDS011;56085;48.910;9.478;2023-06-19T08:41:38;3.13;;;1.90;;
36283;SDS011;56085;48.910;9.478;2023-06-19T08:44:04;2.53;;;1.85;;
36283;SDS011;56085;48.910;9.478;2023-06-19T08:46:30;2.42;;;1.73;;
36283;SDS011;56085;48.910;9.478;2023-06-19T08:48:55;3.20;;;1.95;;
36283;SDS011;56085;48.910;9.478;2023-06-19T08:51:21;5.20;;;2.88;;
36283;SDS011;56085;48.910;9.478;2023-06-19T08:53:47;5.55;;;2.05;;
36283;SDS011;56085;48.910;9.478;2023-06-19T08:56:26;3.45;;;2.08;;
36283;SDS011;56085;48.910;9.478;2023-06-19T08:58:51;4.35;;;2.03;;
36283;SDS011;56085;48.910;9.478;2023-06-19T09:01:17;3.35;;;2.00;;
36283;SDS011;56085;48.910;9.478;2023-06-19T09:03:44;1.90;;;1.50;;
36283;SDS011;56085;48.910;9.478;2023-06-19T09:06:11;2.45;;;1.63;;
36283;SDS011;56085;48.910;9.478;2023-06-19T09:08:40;2.67;;;1.85;;
36283;SDS011;56085;48.910;9.478;2023-06-19T09:11:05;4.93;;;3.00;;
36283;SDS011;56085;48.910;9.478;2023-06-19T09:13:31;3.88;;;2.55;;
36283;SDS011;56085;48.910;9.478;2023-06-19T09:16:03;3.40;;;2.30;;
36283;SDS011;56085;48.910;9.478;2023-06-19T09:18:30;4.13;;;2.55;;
36283;SDS011;56085;48.910;9.478;2023-06-19T09:20:57;6.38;;;4.07;;
36283;SDS011;56085;48.910;9.478;2023-06-19T09:23:23;3.00;;;2.10;;
36283;SDS011;56085;48.910;9.478;2023-06-19T09:25:52;6.57;;;2.38;;
36283;SDS011;56085;48.910;9.478;2023-06-19T09:28:23;3.10;;;2.00;;
36283;SDS011;56085;48.910;9.478;2023-06-19T09:33:20;2.80;;;1.90;;
36283;SDS011;56085;48.910;9.478;2023-06-19T09:35:46;3.60;;;1.73;;
36283;SDS011;56085;48.910;9.478;2023-06-19T09:38:14;3.10;;;1.85;;
36283;SDS011;56085;48.910;9.478;2023-06-19T09:40:44;2.35;;;1.70;;
36283;SDS011;56085;48.910;9.478;2023-06-19T09:43:11;2.78;;;1.70;;
36283;SDS011;56085;48.910;9.478;2023-06-19T09:45:38;2.63;;;1.90;;
36283;SDS011;56085;48.910;9.478;2023-06-19T09:48:04;2.40;;;1.73;;
36283;SDS011;56085;48.910;9.478;2023-06-19T09:50:35;2.80;;;2.10;;
36283;SDS011;56085;48.910;9.478;2023-06-19T09:53:02;3.28;;;1.80;;
36283;SDS011;56085;48.910;9.478;2023-06-19T09:55:29;5.55;;;2.00;;
36283;SDS011;56085;48.910;9.478;2023-06-19T09:57:56;5.82;;;1.92;;
36283;SDS011;56085;48.910;9.478;2023-06-19T10:00:22;3.78;;;1.80;;
36283;SDS011;56085;48.910;9.478;2023-06-19T10:02:56;2.50;;;1.98;;
36283;SDS011;56085;48.910;9.478;2023-06-19T10:05:29;2.58;;;1.90;;
36283;SDS011;56085;48.910;9.478;2023-06-19T10:07:55;3.40;;;2.17;;
36283;SDS011;56085;48.910;9.478;2023-06-19T10:10:25;4.55;;;2.10;;
36283;SDS011;56085;48.910;9.478;2023-06-19T10:12:53;5.85;;;1.98;;
36283;SDS011;56085;48.910;9.478;2023-06-19T10:15:27;3.58;;;2.22;;
36283;SDS011;56085;48.910;9.478;2023-06-19T10:20:28;4.15;;;2.47;;
36283;SDS011;56085;48.910;9.478;2023-06-19T10:25:30;3.22;;;2.40;;
36283;SDS011;56085;48.910;9.478;2023-06-19T10:28:00;6.43;;;2.53;;
36283;SDS011;56085;48.910;9.478;2023-06-19T10:30:26;3.55;;;2.15;;
36283;SDS011;56085;48.910;9.478;2023-06-19T10:32:52;4.75;;;2.72;;
36283;SDS011;56085;48.910;9.478;2023-06-19T10:35:18;2.80;;;2.17;;
36283;SDS011;56085;48.910;9.478;2023-06-19T10:37:46;3.22;;;2.25;;
36283;SDS011;56085;48.910;9.478;2023-06-19T10:40:12;4.88;;;2.30;;
36283;SDS011;56085;48.910;9.478;2023-06-19T10:42:41;2.97;;;2.33;;
36283;SDS011;56085;48.910;9.478;2023-06-19T10:45:07;2.47;;;1.83;;
36283;SDS011;56085;48.910;9.478;2023-06-19T10:47:35;3.80;;;2.55;;
36283;SDS011;56085;48.910;9.478;2023-06-19T10:50:00;5.25;;;2.33;;
36283;SDS011;56085;48.910;9.478;2023-06-19T10:52:29;6.32;;;2.35;;
36283;SDS011;56085;48.910;9.478;2023-06-19T10:54:55;3.03;;;1.98;;
36283;SDS011;56085;48.910;9.478;2023-06-19T10:57:31;3.08;;;2.40;;
36283;SDS011;56085;48.910;9.478;2023-06-19T10:59:57;4.47;;;2.75;;
36283;SDS011;56085;48.910;9.478;2023-06-19T11:02:23;4.68;;;2.50;;
36283;SDS011;56085;48.910;9.478;2023-06-19T11:04:53;3.88;;;2.35;;
36283;SDS011;56085;48.910;9.478;2023-06-19T11:07:19;2.88;;;2.35;;
36283;SDS011;56085;48.910;9.478;2023-06-19T11:09:45;4.72;;;2.80;;
36283;SDS011;56085;48.910;9.478;2023-06-19T11:12:11;5.33;;;2.87;;
36283;SDS011;56085;48.910;9.478;2023-06-19T11:14:36;4.53;;;2.78;;
36283;SDS011;56085;48.910;9.478;2023-06-19T11:17:05;3.25;;;2.33;;
36283;SDS011;56085;48.910;9.478;2023-06-19T11:19:31;10.63;;;2.75;;
36283;SDS011;56085;48.910;9.478;2023-06-19T11:21:58;4.38;;;2.60;;
36283;SDS011;56085;48.910;9.478;2023-06-19T11:24:25;4.10;;;2.58;;
36283;SDS011;56085;48.910;9.478;2023-06-19T11:26:51;3.47;;;2.28;;
36283;SDS011;56085;48.910;9.478;2023-06-19T11:29:24;3.85;;;2.15;;
36283;SDS011;56085;48.910;9.478;2023-06-19T11:32:12;5.20;;;2.15;;
36283;SDS011;56085;48.910;9.478;2023-06-19T11:34:39;3.83;;;2.88;;
36283;SDS011;56085;48.910;9.478;2023-06-19T11:37:14;3.75;;;2.67;;
36283;SDS011;56085;48.910;9.478;2023-06-19T11:39:41;3.50;;;2.45;;
36283;SDS011;56085;48.910;9.478;2023-06-19T11:42:08;4.07;;;2.30;;
36283;SDS011;56085;48.910;9.478;2023-06-19T11:44:34;2.38;;;2.05;;
36283;SDS011;56085;48.910;9.478;2023-06-19T11:46:59;2.97;;;2.28;;
36283;SDS011;56085;48.910;9.478;2023-06-19T11:49:25;2.97;;;2.40;;
36283;SDS011;56085;48.910;9.478;2023-06-19T11:51:51;3.20;;;2.60;;
36283;SDS011;56085;48.910;9.478;2023-06-19T11:54:16;3.53;;;2.60;;
36283;SDS011;56085;48.910;9.478;2023-06-19T11:56:43;4.43;;;2.30;;
36283;SDS011;56085;48.910;9.478;2023-06-19T11:59:09;3.15;;;2.30;;
36283;SDS011;56085;48.910;9.478;2023-06-19T12:01:35;4.97;;;2.38;;
36283;SDS011;56085;48.910;9.478;2023-06-19T12:04:02;3.67;;;2.13;;
36283;SDS011;56085;48.910;9.478;2023-06-19T12:06:28;5.35;;;2.30;;
36283;SDS011;56085;48.910;9.478;2023-06-19T12:08:54;4.28;;;2.67;;
36283;SDS011;56085;48.910;9.478;2023-06-19T12:11:19;3.00;;;2.35;;
36283;SDS011;56085;48.910;9.478;2023-06-19T12:13:45;3.85;;;2.20;;
36283;SDS011;56085;48.910;9.478;2023-06-19T12:16:10;3.17;;;2.40;;
36283;SDS011;56085;48.910;9.478;2023-06-19T12:18:36;3.97;;;2.38;;
36283;SDS011;56085;48.910;9.478;2023-06-19T12:21:02;3.78;;;2.55;;
36283;SDS011;56085;48.910;9.478;2023-06-19T12:23:27;3.13;;;2.22;;
36283;SDS011;56085;48.910;9.478;2023-06-19T12:25:53;3.95;;;2.60;;
36283;SDS011;56085;48.910;9.478;2023-06-19T12:28:18;18.80;;;15.77;;
36283;SDS011;56085;48.910;9.478;2023-06-19T12:30:47;31.15;;;24.15;;
36283;SDS011;56085;48.910;9.478;2023-06-19T12:33:15;11.30;;;8.18;;
36283;SDS011;56085;48.910;9.478;2023-06-19T12:35:42;8.13;;;5.15;;
36283;SDS011;56085;48.910;9.478;2023-06-19T12:38:08;5.43;;;3.38;;
36283;SDS011;56085;48.910;9.478;2023-06-19T12:40:34;8.55;;;2.67;;
36283;SDS011;56085;48.910;9.478;2023-06-19T12:43:01;9.40;;;3.65;;
36283;SDS011;56085;48.910;9.478;2023-06-19T12:45:26;5.43;;;3.63;;
36283;SDS011;56085;48.910;9.478;2023-06-19T12:47:51;6.33;;;2.60;;
36283;SDS011;56085;48.910;9.478;2023-06-19T12:50:17;3.70;;;2.58;;
36283;SDS011;56085;48.910;9.478;2023-06-19T12:52:42;3.00;;;2.33;;
36283;SDS011;56085;48.910;9.478;2023-06-19T12:55:07;2.70;;;2.20;;
36283;SDS011;56085;48.910;9.478;2023-06-19T12:57:33;3.63;;;3.22;;
36283;SDS011;56085;48.910;9.478;2023-06-19T12:59:58;12.38;;;11.13;;
36283;SDS011;56085;48.910;9.478;2023-06-19T13:02:23;5.20;;;2.57;;
36283;SDS011;56085;48.910;9.478;2023-06-19T13:04:49;9.93;;;8.93;;
36283;SDS011;56085;48.910;9.478;2023-06-19T13:07:14;4.07;;;2.85;;
36283;SDS011;56085;48.910;9.478;2023-06-19T13:09:40;6.85;;;3.13;;
36283;SDS011;56085;48.910;9.478;2023-06-19T13:12:05;2.90;;;2.23;;
36283;SDS011;56085;48.910;9.478;2023-06-19T13:14:31;3.60;;;2.70;;
36283;SDS011;56085;48.910;9.478;2023-06-19T13:16:57;2.65;;;2.15;;
36283;SDS011;56085;48.910;9.478;2023-06-19T13:19:22;4.53;;;2.72;;
36283;SDS011;56085;48.910;9.478;2023-06-19T13:21:48;3.63;;;2.47;;
36283;SDS011;56085;48.910;9.478;2023-06-19T13:24:13;4.47;;;2.40;;
36283;SDS011;56085;48.910;9.478;2023-06-19T13:26:38;4.97;;;2.70;;
36283;SDS011;56085;48.910;9.478;2023-06-19T13:29:04;2.92;;;2.35;;
36283;SDS011;56085;48.910;9.478;2023-06-19T13:31:29;3.60;;;2.63;;
36283;SDS011;56085;48.910;9.478;2023-06-19T13:33:54;4.35;;;2.83;;
36283;SDS011;56085;48.910;9.478;2023-06-19T13:36:20;3.90;;;2.58;;
36283;SDS011;56085;48.910;9.478;2023-06-19T13:38:45;2.65;;;2.30;;
36283;SDS011;56085;48.910;9.478;2023-06-19T13:41:11;6.32;;;2.55;;
36283;SDS011;56085;48.910;9.478;2023-06-19T13:43:38;3.10;;;2.60;;
36283;SDS011;56085;48.910;9.478;2023-06-19T13:46:06;3.15;;;2.58;;
36283;SDS011;56085;48.910;9.478;2023-06-19T13:48:32;2.83;;;2.42;;
36283;SDS011;56085;48.910;9.478;2023-06-19T13:50:57;4.38;;;2.35;;
36283;SDS011;56085;48.910;9.478;2023-06-19T13:53:24;3.90;;;2.25;;
36283;SDS011;56085;48.910;9.478;2023-06-19T13:55:50;3.05;;;2.60;;
36283;SDS011;56085;48.910;9.478;2023-06-19T13:58:15;3.83;;;3.30;;
36283;SDS011;56085;48.910;9.478;2023-06-19T14:00:40;3.10;;;1.93;;
36283;SDS011;56085;48.910;9.478;2023-06-19T14:03:05;4.50;;;2.90;;
36283;SDS011;56085;48.910;9.478;2023-06-19T14:05:32;3.40;;;2.65;;
36283;SDS011;56085;48.910;9.478;2023-06-19T14:07:58;3.05;;;2.30;;
36283;SDS011;56085;48.910;9.478;2023-06-19T14:10:23;5.72;;;2.97;;
36283;SDS011;56085;48.910;9.478;2023-06-19T14:12:49;3.47;;;2.35;;
36283;SDS011;56085;48.910;9.478;2023-06-19T14:15:14;4.07;;;2.30;;
36283;SDS011;56085;48.910;9.478;2023-06-19T14:17:39;4.03;;;2.80;;
36283;SDS011;56085;48.910;9.478;2023-06-19T14:20:06;4.45;;;2.22;;
36283;SDS011;56085;48.910;9.478;2023-06-19T14:22:33;4.93;;;2.22;;
36283;SDS011;56085;48.910;9.478;2023-06-19T14:24:58;4.83;;;2.57;;
36283;SDS011;56085;48.910;9.478;2023-06-19T14:27:25;2.58;;;2.03;;
36283;SDS011;56085;48.910;9.478;2023-06-19T14:29:51;3.38;;;2.60;;
36283;SDS011;56085;48.910;9.478;2023-06-19T14:32:18;3.75;;;2.80;;
36283;SDS011;56085;48.910;9.478;2023-06-19T14:34:43;3.00;;;2.30;;
36283;SDS011;56085;48.910;9.478;2023-06-19T14:37:09;3.10;;;2.30;;
36283;SDS011;56085;48.910;9.478;2023-06-19T14:39:34;7.67;;;2.97;;
36283;SDS011;56085;48.910;9.478;2023-06-19T14:41:59;3.40;;;2.60;;
36283;SDS011;56085;48.910;9.478;2023-06-19T14:44:24;3.65;;;2.40;;
36283;SDS011;56085;48.910;9.478;2023-06-19T14:46:50;3.27;;;2.40;;
36283;SDS011;56085;48.910;9.478;2023-06-19T14:49:15;3.73;;;2.27;;